sensor_id;sensor_type;location;lat;lon;timestamp;P1;durP1;ratioP1;P2;durP2;ratioP2
58615;SDS011;44385;51.992;4.206;2023-06-26T00:00:26;7.95;;;5.70;;
58615;SDS011;44385;51.992;4.206;2023-06-26T00:02:55;13.05;;;5.30;;
58615;SDS011;44385;51.992;4.206;2023-06-26T00:05:21;9.50;;;5.55;;
58615;SDS011;44385;51.992;4.206;2023-06-26T00:07:48;9.23;;;5.30;;
58615;SDS011;44385;51.992;4.206;2023-06-26T00:10:15;9.02;;;5.15;;
58615;SDS011;44385;51.992;4.206;2023-06-26T00:12:41;9.48;;;4.93;;
58615;SDS011;44385;51.992;4.206;2023-06-26T00:15:09;9.43;;;5.00;;
58615;SDS011;44385;51.992;4.206;2023-06-26T00:17:37;10.13;;;5.55;;
58615;SDS011;44385;51.992;4.206;2023-06-26T00:20:04;10.35;;;4.80;;
58615;SDS011;44385;51.992;4.206;2023-06-26T00:22:31;10.13;;;4.75;;
58615;SDS011;44385;51.992;4.206;2023-06-26T00:24:58;11.88;;;5.00;;
58615;SDS011;44385;51.992;4.206;2023-06-26T00:27:24;12.00;;;5.25;;
58615;SDS011;44385;51.992;4.206;2023-06-26T00:29:51;10.88;;;5.13;;
58615;SDS011;44385;51.992;4.206;2023-06-26T00:32:19;11.57;;;5.63;;
58615;SDS011;44385;51.992;4.206;2023-06-26T00:34:46;11.07;;;5.47;;
58615;SDS011;44385;51.992;4.206;2023-06-26T00:37:12;14.10;;;5.65;;
58615;SDS011;44385;51.992;4.206;2023-06-26T00:39:39;12.88;;;5.43;;
58615;SDS011;44385;51.992;4.206;2023-06-26T00:42:05;10.32;;;5.35;;
58615;SDS011;44385;51.992;4.206;2023-06-26T00:44:32;13.73;;;5.47;;
58615;SDS011;44385;51.992;4.206;2023-06-26T00:46:58;11.38;;;5.97;;
58615;SDS011;44385;51.992;4.206;2023-06-26T00:49:27;15.40;;;6.70;;
58615;SDS011;44385;51.992;4.206;2023-06-26T00:51:53;14.88;;;5.30;;
58615;SDS011;44385;51.992;4.206;2023-06-26T00:54:20;15.77;;;6.57;;
58615;SDS011;44385;51.992;4.206;2023-06-26T00:56:47;14.27;;;5.88;;
58615;SDS011;44385;51.992;4.206;2023-06-26T00:59:14;12.90;;;5.40;;
58615;SDS011;44385;51.992;4.206;2023-06-26T01:01:40;12.27;;;5.60;;
58615;SDS011;44385;51.992;4.206;2023-06-26T01:04:06;15.90;;;6.07;;
58615;SDS011;44385;51.992;4.206;2023-06-26T01:06:34;15.82;;;5.80;;
58615;SDS011;44385;51.992;4.206;2023-06-26T01:09:01;15.47;;;5.70;;
58615;SDS011;44385;51.992;4.206;2023-06-26T01:11:29;19.27;;;7.03;;
58615;SDS011;44385;51.992;4.206;2023-06-26T01:13:55;14.38;;;6.40;;
58615;SDS011;44385;51.992;4.206;2023-06-26T01:16:23;15.52;;;6.13;;
58615;SDS011;44385;51.992;4.206;2023-06-26T01:18:50;14.45;;;5.47;;
58615;SDS011;44385;51.992;4.206;2023-06-26T01:21:17;15.77;;;6.32;;
58615;SDS011;44385;51.992;4.206;2023-06-26T01:23:49;16.27;;;5.70;;
58615;SDS011;44385;51.992;4.206;2023-06-26T01:26:23;16.05;;;7.03;;
58615;SDS011;44385;51.992;4.206;2023-06-26T01:28:52;24.95;;;7.13;;
58615;SDS011;44385;51.992;4.206;2023-06-26T01:31:21;15.15;;;5.97;;
58615;SDS011;44385;51.992;4.206;2023-06-26T01:33:48;14.88;;;5.57;;
58615;SDS011;44385;51.992;4.206;2023-06-26T01:36:15;16.60;;;6.65;;
58615;SDS011;44385;51.992;4.206;2023-06-26T01:38:42;19.33;;;6.32;;
58615;SDS011;44385;51.992;4.206;2023-06-26T01:41:08;18.30;;;6.40;;
58615;SDS011;44385;51.992;4.206;2023-06-26T01:43:38;20.00;;;6.72;;
58615;SDS011;44385;51.992;4.206;2023-06-26T01:46:10;18.92;;;6.38;;
58615;SDS011;44385;51.992;4.206;2023-06-26T01:48:43;13.55;;;5.95;;
58615;SDS011;44385;51.992;4.206;2023-06-26T01:51:12;14.65;;;5.65;;
58615;SDS011;44385;51.992;4.206;2023-06-26T01:53:41;15.93;;;6.40;;
58615;SDS011;44385;51.992;4.206;2023-06-26T01:56:11;14.50;;;5.80;;
58615;SDS011;44385;51.992;4.206;2023-06-26T01:58:40;16.83;;;5.70;;
58615;SDS011;44385;51.992;4.206;2023-06-26T02:01:09;15.00;;;5.95;;
58615;SDS011;44385;51.992;4.206;2023-06-26T02:03:35;15.80;;;5.28;;
58615;SDS011;44385;51.992;4.206;2023-06-26T02:06:02;18.65;;;5.82;;
58615;SDS011;44385;51.992;4.206;2023-06-26T02:08:29;14.00;;;5.80;;
58615;SDS011;44385;51.992;4.206;2023-06-26T02:10:55;13.20;;;5.93;;
58615;SDS011;44385;51.992;4.206;2023-06-26T02:13:21;13.65;;;4.45;;
58615;SDS011;44385;51.992;4.206;2023-06-26T02:15:49;15.05;;;5.65;;
58615;SDS011;44385;51.992;4.206;2023-06-26T02:18:16;14.35;;;5.55;;
58615;SDS011;44385;51.992;4.206;2023-06-26T02:20:42;13.00;;;6.30;;
58615;SDS011;44385;51.992;4.206;2023-06-26T02:23:09;13.57;;;5.82;;
58615;SDS011;44385;51.992;4.206;2023-06-26T02:25:36;19.80;;;7.00;;
58615;SDS011;44385;51.992;4.206;2023-06-26T02:28:02;20.17;;;6.80;;
58615;SDS011;44385;51.992;4.206;2023-06-26T02:30:29;12.95;;;5.22;;
58615;SDS011;44385;51.992;4.206;2023-06-26T02:32:57;13.55;;;6.35;;
58615;SDS011;44385;51.992;4.206;2023-06-26T02:35:23;14.93;;;5.47;;
58615;SDS011;44385;51.992;4.206;2023-06-26T02:37:50;18.95;;;5.20;;
58615;SDS011;44385;51.992;4.206;2023-06-26T02:40:16;11.52;;;5.25;;
58615;SDS011;44385;51.992;4.206;2023-06-26T02:42:42;14.57;;;5.70;;
58615;SDS011;44385;51.992;4.206;2023-06-26T02:45:09;13.90;;;5.28;;
58615;SDS011;44385;51.992;4.206;2023-06-26T02:47:35;16.35;;;5.97;;
58615;SDS011;44385;51.992;4.206;2023-06-26T02:50:06;17.73;;;5.95;;
58615;SDS011;44385;51.992;4.206;2023-06-26T02:52:32;21.25;;;6.85;;
58615;SDS011;44385;51.992;4.206;2023-06-26T02:54:59;19.80;;;6.55;;
58615;SDS011;44385;51.992;4.206;2023-06-26T02:57:25;20.95;;;7.30;;
58615;SDS011;44385;51.992;4.206;2023-06-26T02:59:51;19.08;;;6.35;;
58615;SDS011;44385;51.992;4.206;2023-06-26T03:02:18;15.80;;;6.40;;
58615;SDS011;44385;51.992;4.206;2023-06-26T03:04:44;19.77;;;6.20;;
58615;SDS011;44385;51.992;4.206;2023-06-26T03:07:12;16.85;;;6.28;;
58615;SDS011;44385;51.992;4.206;2023-06-26T03:09:38;19.88;;;6.95;;
58615;SDS011;44385;51.992;4.206;2023-06-26T03:12:05;15.75;;;6.38;;
58615;SDS011;44385;51.992;4.206;2023-06-26T03:14:32;17.77;;;6.65;;
58615;SDS011;44385;51.992;4.206;2023-06-26T03:16:58;18.17;;;7.35;;
58615;SDS011;44385;51.992;4.206;2023-06-26T03:19:28;19.55;;;6.63;;
58615;SDS011;44385;51.992;4.206;2023-06-26T03:21:54;17.52;;;6.53;;
58615;SDS011;44385;51.992;4.206;2023-06-26T03:24:22;23.25;;;6.00;;
58615;SDS011;44385;51.992;4.206;2023-06-26T03:26:49;16.98;;;5.38;;
58615;SDS011;44385;51.992;4.206;2023-06-26T03:29:16;13.80;;;6.30;;
58615;SDS011;44385;51.992;4.206;2023-06-26T03:31:42;14.73;;;5.30;;
58615;SDS011;44385;51.992;4.206;2023-06-26T03:34:09;17.45;;;6.15;;
58615;SDS011;44385;51.992;4.206;2023-06-26T03:36:35;15.68;;;5.05;;
58615;SDS011;44385;51.992;4.206;2023-06-26T03:39:01;18.50;;;5.70;;
58615;SDS011;44385;51.992;4.206;2023-06-26T03:41:30;11.45;;;5.10;;
58615;SDS011;44385;51.992;4.206;2023-06-26T03:43:57;11.10;;;5.70;;
58615;SDS011;44385;51.992;4.206;2023-06-26T03:46:25;13.23;;;5.57;;
58615;SDS011;44385;51.992;4.206;2023-06-26T03:48:51;14.27;;;5.70;;
58615;SDS011;44385;51.992;4.206;2023-06-26T03:51:18;15.38;;;5.18;;
58615;SDS011;44385;51.992;4.206;2023-06-26T03:53:45;12.10;;;5.40;;
58615;SDS011;44385;51.992;4.206;2023-06-26T03:56:11;13.15;;;5.07;;
58615;SDS011;44385;51.992;4.206;2023-06-26T03:58:40;12.27;;;5.53;;
58615;SDS011;44385;51.992;4.206;2023-06-26T04:01:07;10.73;;;5.07;;
58615;SDS011;44385;51.992;4.206;2023-06-26T04:03:33;8.35;;;4.57;;
58615;SDS011;44385;51.992;4.206;2023-06-26T04:06:00;11.75;;;4.53;;
58615;SDS011;44385;51.992;4.206;2023-06-26T04:08:26;12.88;;;4.68;;
58615;SDS011;44385;51.992;4.206;2023-06-26T04:10:52;10.65;;;4.60;;
58615;SDS011;44385;51.992;4.206;2023-06-26T04:13:20;13.68;;;5.85;;
58615;SDS011;44385;51.992;4.206;2023-06-26T04:15:48;12.65;;;4.78;;
58615;SDS011;44385;51.992;4.206;2023-06-26T04:18:14;8.25;;;4.95;;
58615;SDS011;44385;51.992;4.206;2023-06-26T04:20:41;8.68;;;4.32;;
58615;SDS011;44385;51.992;4.206;2023-06-26T04:23:10;10.55;;;4.60;;
58615;SDS011;44385;51.992;4.206;2023-06-26T04:25:37;7.53;;;4.20;;
58615;SDS011;44385;51.992;4.206;2023-06-26T04:28:04;8.82;;;4.38;;
58615;SDS011;44385;51.992;4.206;2023-06-26T04:30:30;7.22;;;4.65;;
58615;SDS011;44385;51.992;4.206;2023-06-26T04:32:58;11.27;;;4.60;;
58615;SDS011;44385;51.992;4.206;2023-06-26T04:35:26;10.15;;;4.47;;
58615;SDS011;44385;51.992;4.206;2023-06-26T04:37:52;7.32;;;3.88;;
58615;SDS011;44385;51.992;4.206;2023-06-26T04:40:18;8.02;;;4.63;;
58615;SDS011;44385;51.992;4.206;2023-06-26T04:42:45;10.00;;;4.38;;
58615;SDS011;44385;51.992;4.206;2023-06-26T04:45:12;8.95;;;4.70;;
58615;SDS011;44385;51.992;4.206;2023-06-26T04:47:38;10.30;;;4.93;;
58615;SDS011;44385;51.992;4.206;2023-06-26T04:50:07;6.70;;;3.25;;
58615;SDS011;44385;51.992;4.206;2023-06-26T04:52:34;7.43;;;4.25;;
58615;SDS011;44385;51.992;4.206;2023-06-26T04:55:01;4.85;;;2.65;;
58615;SDS011;44385;51.992;4.206;2023-06-26T04:57:27;5.93;;;2.92;;
58615;SDS011;44385;51.992;4.206;2023-06-26T04:59:53;8.13;;;2.60;;
58615;SDS011;44385;51.992;4.206;2023-06-26T05:02:20;6.32;;;2.55;;
58615;SDS011;44385;51.992;4.206;2023-06-26T05:04:46;6.05;;;2.22;;
58615;SDS011;44385;51.992;4.206;2023-06-26T05:07:15;6.72;;;3.13;;
58615;SDS011;44385;51.992;4.206;2023-06-26T05:09:41;4.80;;;2.00;;
58615;SDS011;44385;51.992;4.206;2023-06-26T05:12:07;4.78;;;1.73;;
58615;SDS011;44385;51.992;4.206;2023-06-26T05:14:34;6.50;;;1.80;;
58615;SDS011;44385;51.992;4.206;2023-06-26T05:17:00;5.55;;;1.88;;
58615;SDS011;44385;51.992;4.206;2023-06-26T05:19:27;7.00;;;1.77;;
58615;SDS011;44385;51.992;4.206;2023-06-26T05:21:53;7.47;;;2.78;;
58615;SDS011;44385;51.992;4.206;2023-06-26T05:24:22;13.13;;;3.03;;
58615;SDS011;44385;51.992;4.206;2023-06-26T05:26:49;5.05;;;1.95;;
58615;SDS011;44385;51.992;4.206;2023-06-26T05:29:16;8.60;;;2.15;;
58615;SDS011;44385;51.992;4.206;2023-06-26T05:31:42;5.38;;;1.80;;
58615;SDS011;44385;51.992;4.206;2023-06-26T05:34:10;9.50;;;2.25;;
58615;SDS011;44385;51.992;4.206;2023-06-26T05:36:38;6.93;;;2.20;;
58615;SDS011;44385;51.992;4.206;2023-06-26T05:39:05;9.32;;;2.25;;
58615;SDS011;44385;51.992;4.206;2023-06-26T05:41:33;6.53;;;1.73;;
58615;SDS011;44385;51.992;4.206;2023-06-26T05:43:59;7.93;;;2.83;;
58615;SDS011;44385;51.992;4.206;2023-06-26T05:46:25;6.00;;;2.13;;
58615;SDS011;44385;51.992;4.206;2023-06-26T05:48:52;7.88;;;2.28;;
58615;SDS011;44385;51.992;4.206;2023-06-26T05:51:18;5.97;;;1.70;;
58615;SDS011;44385;51.992;4.206;2023-06-26T05:53:45;7.15;;;1.63;;
58615;SDS011;44385;51.992;4.206;2023-06-26T05:56:12;7.13;;;1.95;;
58615;SDS011;44385;51.992;4.206;2023-06-26T05:58:40;10.55;;;2.20;;
58615;SDS011;44385;51.992;4.206;2023-06-26T06:01:06;3.72;;;1.85;;
58615;SDS011;44385;51.992;4.206;2023-06-26T06:03:33;6.38;;;2.22;;
58615;SDS011;44385;51.992;4.206;2023-06-26T06:05:59;4.78;;;1.92;;
58615;SDS011;44385;51.992;4.206;2023-06-26T06:08:25;7.60;;;2.40;;
58615;SDS011;44385;51.992;4.206;2023-06-26T06:10:52;9.98;;;2.38;;
58615;SDS011;44385;51.992;4.206;2023-06-26T06:13:18;9.27;;;2.30;;
58615;SDS011;44385;51.992;4.206;2023-06-26T06:15:46;5.30;;;2.05;;
58615;SDS011;44385;51.992;4.206;2023-06-26T06:18:12;6.20;;;1.60;;
58615;SDS011;44385;51.992;4.206;2023-06-26T06:20:39;7.53;;;1.85;;
58615;SDS011;44385;51.992;4.206;2023-06-26T06:23:05;5.28;;;2.20;;
58615;SDS011;44385;51.992;4.206;2023-06-26T06:25:32;5.65;;;1.92;;
58615;SDS011;44385;51.992;4.206;2023-06-26T06:27:58;8.32;;;1.58;;
58615;SDS011;44385;51.992;4.206;2023-06-26T06:30:24;7.95;;;1.67;;
58615;SDS011;44385;51.992;4.206;2023-06-26T06:32:53;5.90;;;1.48;;
58615;SDS011;44385;51.992;4.206;2023-06-26T06:35:19;7.60;;;1.55;;
58615;SDS011;44385;51.992;4.206;2023-06-26T06:37:46;4.60;;;1.50;;
58615;SDS011;44385;51.992;4.206;2023-06-26T06:40:14;6.72;;;1.80;;
58615;SDS011;44385;51.992;4.206;2023-06-26T06:42:40;5.72;;;1.67;;
58615;SDS011;44385;51.992;4.206;2023-06-26T06:45:06;11.45;;;2.13;;
58615;SDS011;44385;51.992;4.206;2023-06-26T06:47:33;6.38;;;1.73;;
58615;SDS011;44385;51.992;4.206;2023-06-26T06:50:01;6.55;;;1.90;;
58615;SDS011;44385;51.992;4.206;2023-06-26T06:52:32;8.68;;;2.08;;
58615;SDS011;44385;51.992;4.206;2023-06-26T06:54:59;7.38;;;1.67;;
58615;SDS011;44385;51.992;4.206;2023-06-26T06:57:30;4.78;;;1.38;;
58615;SDS011;44385;51.992;4.206;2023-06-26T07:00:00;6.57;;;1.77;;
58615;SDS011;44385;51.992;4.206;2023-06-26T07:02:28;5.57;;;2.00;;
58615;SDS011;44385;51.992;4.206;2023-06-26T07:04:54;4.32;;;2.03;;
58615;SDS011;44385;51.992;4.206;2023-06-26T07:07:22;8.70;;;1.70;;
58615;SDS011;44385;51.992;4.206;2023-06-26T07:09:48;4.30;;;1.90;;
58615;SDS011;44385;51.992;4.206;2023-06-26T07:12:14;6.10;;;1.70;;
58615;SDS011;44385;51.992;4.206;2023-06-26T07:14:41;6.97;;;1.80;;
58615;SDS011;44385;51.992;4.206;2023-06-26T07:17:07;7.07;;;1.70;;
58615;SDS011;44385;51.992;4.206;2023-06-26T07:19:33;4.32;;;1.35;;
58615;SDS011;44385;51.992;4.206;2023-06-26T07:22:00;8.93;;;1.70;;
58615;SDS011;44385;51.992;4.206;2023-06-26T07:24:27;3.88;;;1.70;;
58615;SDS011;44385;51.992;4.206;2023-06-26T07:26:54;9.50;;;2.17;;
58615;SDS011;44385;51.992;4.206;2023-06-26T07:29:20;5.50;;;2.13;;
58615;SDS011;44385;51.992;4.206;2023-06-26T07:31:47;6.20;;;2.10;;
58615;SDS011;44385;51.992;4.206;2023-06-26T07:34:13;10.52;;;2.60;;
58615;SDS011;44385;51.992;4.206;2023-06-26T07:36:39;8.48;;;2.38;;
58615;SDS011;44385;51.992;4.206;2023-06-26T07:39:06;10.23;;;2.38;;
58615;SDS011;44385;51.992;4.206;2023-06-26T07:41:33;9.60;;;2.22;;
58615;SDS011;44385;51.992;4.206;2023-06-26T07:44:00;6.90;;;1.92;;
58615;SDS011;44385;51.992;4.206;2023-06-26T07:46:26;8.25;;;1.80;;
58615;SDS011;44385;51.992;4.206;2023-06-26T07:48:53;4.68;;;2.28;;
58615;SDS011;44385;51.992;4.206;2023-06-26T07:51:19;7.28;;;2.60;;
58615;SDS011;44385;51.992;4.206;2023-06-26T07:53:46;16.15;;;3.38;;
58615;SDS011;44385;51.992;4.206;2023-06-26T07:56:12;5.00;;;1.92;;
58615;SDS011;44385;51.992;4.206;2023-06-26T07:58:40;12.82;;;2.03;;
58615;SDS011;44385;51.992;4.206;2023-06-26T08:01:06;6.82;;;1.90;;
58615;SDS011;44385;51.992;4.206;2023-06-26T08:03:33;6.03;;;2.05;;
58615;SDS011;44385;51.992;4.206;2023-06-26T08:05:59;4.60;;;1.90;;
58615;SDS011;44385;51.992;4.206;2023-06-26T08:08:26;8.35;;;2.40;;
58615;SDS011;44385;51.992;4.206;2023-06-26T08:10:52;5.53;;;1.77;;
58615;SDS011;44385;51.992;4.206;2023-06-26T08:13:18;7.10;;;2.13;;
58615;SDS011;44385;51.992;4.206;2023-06-26T08:15:46;6.05;;;2.47;;
58615;SDS011;44385;51.992;4.206;2023-06-26T08:18:12;6.63;;;2.03;;
58615;SDS011;44385;51.992;4.206;2023-06-26T08:20:39;9.00;;;2.10;;
58615;SDS011;44385;51.992;4.206;2023-06-26T08:23:05;7.47;;;2.10;;
58615;SDS011;44385;51.992;4.206;2023-06-26T08:25:32;11.23;;;2.58;;
58615;SDS011;44385;51.992;4.206;2023-06-26T08:27:58;6.05;;;2.00;;
58615;SDS011;44385;51.992;4.206;2023-06-26T08:30:25;9.00;;;2.10;;
58615;SDS011;44385;51.992;4.206;2023-06-26T08:32:54;4.53;;;1.85;;
58615;SDS011;44385;51.992;4.206;2023-06-26T08:35:21;7.03;;;2.22;;
58615;SDS011;44385;51.992;4.206;2023-06-26T08:37:47;9.18;;;2.20;;
58615;SDS011;44385;51.992;4.206;2023-06-26T08:40:13;7.10;;;2.28;;
58615;SDS011;44385;51.992;4.206;2023-06-26T08:42:42;13.43;;;2.92;;
58615;SDS011;44385;51.992;4.206;2023-06-26T08:45:09;28.35;;;4.78;;
58615;SDS011;44385;51.992;4.206;2023-06-26T08:47:35;13.30;;;2.88;;
58615;SDS011;44385;51.992;4.206;2023-06-26T08:50:06;4.85;;;2.00;;
58615;SDS011;44385;51.992;4.206;2023-06-26T08:52:35;7.03;;;2.38;;
58615;SDS011;44385;51.992;4.206;2023-06-26T08:55:02;15.63;;;4.07;;
58615;SDS011;44385;51.992;4.206;2023-06-26T08:57:29;49.72;;;9.23;;
58615;SDS011;44385;51.992;4.206;2023-06-26T08:59:56;57.05;;;8.10;;
58615;SDS011;44385;51.992;4.206;2023-06-26T09:02:23;62.95;;;12.90;;
58615;SDS011;44385;51.992;4.206;2023-06-26T09:04:50;70.35;;;9.80;;
58615;SDS011;44385;51.992;4.206;2023-06-26T09:07:17;14.13;;;3.10;;
58615;SDS011;44385;51.992;4.206;2023-06-26T09:09:44;9.50;;;2.80;;
58615;SDS011;44385;51.992;4.206;2023-06-26T09:12:10;7.00;;;1.92;;
58615;SDS011;44385;51.992;4.206;2023-06-26T09:14:37;12.95;;;3.65;;
58615;SDS011;44385;51.992;4.206;2023-06-26T09:17:04;63.67;;;11.32;;
58615;SDS011;44385;51.992;4.206;2023-06-26T09:19:30;10.55;;;3.03;;
58615;SDS011;44385;51.992;4.206;2023-06-26T09:21:57;13.98;;;3.03;;
58615;SDS011;44385;51.992;4.206;2023-06-26T09:24:24;7.22;;;2.42;;
58615;SDS011;44385;51.992;4.206;2023-06-26T09:26:51;17.85;;;4.22;;
58615;SDS011;44385;51.992;4.206;2023-06-26T09:29:17;9.90;;;2.55;;
58615;SDS011;44385;51.992;4.206;2023-06-26T09:31:44;16.35;;;4.15;;
58615;SDS011;44385;51.992;4.206;2023-06-26T09:34:10;9.63;;;2.75;;
58615;SDS011;44385;51.992;4.206;2023-06-26T09:36:37;8.88;;;2.85;;
58615;SDS011;44385;51.992;4.206;2023-06-26T09:39:04;24.63;;;5.03;;
58615;SDS011;44385;51.992;4.206;2023-06-26T09:41:34;7.32;;;2.22;;
58615;SDS011;44385;51.992;4.206;2023-06-26T09:44:01;13.50;;;3.55;;
58615;SDS011;44385;51.992;4.206;2023-06-26T09:46:29;4.45;;;1.52;;
58615;SDS011;44385;51.992;4.206;2023-06-26T09:49:01;4.22;;;1.40;;
58615;SDS011;44385;51.992;4.206;2023-06-26T09:51:29;16.70;;;3.15;;
58615;SDS011;44385;51.992;4.206;2023-06-26T09:53:56;8.18;;;2.33;;
58615;SDS011;44385;51.992;4.206;2023-06-26T09:56:23;5.38;;;2.75;;
58615;SDS011;44385;51.992;4.206;2023-06-26T09:58:51;7.07;;;1.80;;
58615;SDS011;44385;51.992;4.206;2023-06-26T10:01:17;6.85;;;1.65;;
58615;SDS011;44385;51.992;4.206;2023-06-26T10:03:44;6.07;;;1.92;;
58615;SDS011;44385;51.992;4.206;2023-06-26T10:06:10;13.65;;;3.30;;
58615;SDS011;44385;51.992;4.206;2023-06-26T10:08:38;7.97;;;2.13;;
58615;SDS011;44385;51.992;4.206;2023-06-26T10:11:05;12.85;;;2.63;;
58615;SDS011;44385;51.992;4.206;2023-06-26T10:13:34;5.50;;;2.17;;
58615;SDS011;44385;51.992;4.206;2023-06-26T10:16:02;8.10;;;1.63;;
58615;SDS011;44385;51.992;4.206;2023-06-26T10:18:30;6.82;;;2.50;;
58615;SDS011;44385;51.992;4.206;2023-06-26T10:20:58;5.38;;;1.90;;
58615;SDS011;44385;51.992;4.206;2023-06-26T10:23:26;4.18;;;1.85;;
58615;SDS011;44385;51.992;4.206;2023-06-26T10:25:54;9.10;;;1.50;;
58615;SDS011;44385;51.992;4.206;2023-06-26T10:28:21;4.60;;;1.95;;
58615;SDS011;44385;51.992;4.206;2023-06-26T10:30:48;4.35;;;2.45;;
58615;SDS011;44385;51.992;4.206;2023-06-26T10:33:18;5.30;;;1.70;;
58615;SDS011;44385;51.992;4.206;2023-06-26T10:35:45;5.25;;;1.60;;
58615;SDS011;44385;51.992;4.206;2023-06-26T10:38:12;3.63;;;1.85;;
58615;SDS011;44385;51.992;4.206;2023-06-26T10:40:42;4.07;;;1.67;;
58615;SDS011;44385;51.992;4.206;2023-06-26T10:43:10;4.88;;;1.70;;
58615;SDS011;44385;51.992;4.206;2023-06-26T10:45:43;4.90;;;1.90;;
58615;SDS011;44385;51.992;4.206;2023-06-26T10:48:10;4.63;;;1.90;;
58615;SDS011;44385;51.992;4.206;2023-06-26T10:50:38;4.07;;;1.75;;
58615;SDS011;44385;51.992;4.206;2023-06-26T10:53:07;5.65;;;1.92;;
58615;SDS011;44385;51.992;4.206;2023-06-26T10:55:33;5.03;;;1.85;;
58615;SDS011;44385;51.992;4.206;2023-06-26T10:58:00;9.32;;;2.72;;
58615;SDS011;44385;51.992;4.206;2023-06-26T11:00:27;4.63;;;1.75;;
58615;SDS011;44385;51.992;4.206;2023-06-26T11:02:53;7.03;;;2.22;;
58615;SDS011;44385;51.992;4.206;2023-06-26T11:05:23;13.23;;;2.70;;
58615;SDS011;44385;51.992;4.206;2023-06-26T11:08:04;10.38;;;2.67;;
58615;SDS011;44385;51.992;4.206;2023-06-26T11:10:42;20.55;;;4.50;;
58615;SDS011;44385;51.992;4.206;2023-06-26T11:13:14;17.20;;;3.08;;
58615;SDS011;44385;51.992;4.206;2023-06-26T11:15:42;4.82;;;2.08;;
58615;SDS011;44385;51.992;4.206;2023-06-26T11:18:08;4.57;;;2.30;;
58615;SDS011;44385;51.992;4.206;2023-06-26T11:20:35;5.43;;;1.95;;
58615;SDS011;44385;51.992;4.206;2023-06-26T11:23:01;5.55;;;1.65;;
58615;SDS011;44385;51.992;4.206;2023-06-26T11:25:35;8.80;;;2.58;;
58615;SDS011;44385;51.992;4.206;2023-06-26T11:28:02;7.65;;;2.55;;
58615;SDS011;44385;51.992;4.206;2023-06-26T11:30:29;4.80;;;2.58;;
58615;SDS011;44385;51.992;4.206;2023-06-26T11:33:02;5.40;;;2.70;;
58615;SDS011;44385;51.992;4.206;2023-06-26T11:35:29;5.25;;;2.17;;
58615;SDS011;44385;51.992;4.206;2023-06-26T11:37:55;6.25;;;1.90;;
58615;SDS011;44385;51.992;4.206;2023-06-26T11:40:23;4.90;;;2.08;;
58615;SDS011;44385;51.992;4.206;2023-06-26T11:42:53;4.93;;;2.42;;
58615;SDS011;44385;51.992;4.206;2023-06-26T11:45:19;4.43;;;1.73;;
58615;SDS011;44385;51.992;4.206;2023-06-26T11:47:46;7.82;;;2.38;;
58615;SDS011;44385;51.992;4.206;2023-06-26T11:50:14;3.70;;;2.13;;
58615;SDS011;44385;51.992;4.206;2023-06-26T11:52:41;9.20;;;2.03;;
58615;SDS011;44385;51.992;4.206;2023-06-26T11:55:07;4.97;;;1.83;;
58615;SDS011;44385;51.992;4.206;2023-06-26T11:57:35;3.53;;;1.65;;
58615;SDS011;44385;51.992;4.206;2023-06-26T12:00:12;15.05;;;2.85;;
58615;SDS011;44385;51.992;4.206;2023-06-26T12:02:38;6.45;;;1.77;;
58615;SDS011;44385;51.992;4.206;2023-06-26T12:05:05;5.10;;;1.75;;
58615;SDS011;44385;51.992;4.206;2023-06-26T12:07:32;7.15;;;1.80;;
58615;SDS011;44385;51.992;4.206;2023-06-26T12:09:59;6.43;;;1.90;;
58615;SDS011;44385;51.992;4.206;2023-06-26T12:12:25;6.25;;;2.35;;
58615;SDS011;44385;51.992;4.206;2023-06-26T12:14:52;7.35;;;2.00;;
58615;SDS011;44385;51.992;4.206;2023-06-26T12:17:22;2.90;;;1.50;;
58615;SDS011;44385;51.992;4.206;2023-06-26T12:19:48;5.47;;;2.08;;
58615;SDS011;44385;51.992;4.206;2023-06-26T12:22:16;6.70;;;1.98;;
58615;SDS011;44385;51.992;4.206;2023-06-26T12:24:43;5.00;;;2.08;;
58615;SDS011;44385;51.992;4.206;2023-06-26T12:27:10;3.13;;;2.00;;
58615;SDS011;44385;51.992;4.206;2023-06-26T12:32:07;7.13;;;2.35;;
58615;SDS011;44385;51.992;4.206;2023-06-26T12:34:36;3.67;;;1.77;;
58615;SDS011;44385;51.992;4.206;2023-06-26T12:37:03;5.97;;;1.98;;
58615;SDS011;44385;51.992;4.206;2023-06-26T12:39:44;6.28;;;2.55;;
58615;SDS011;44385;51.992;4.206;2023-06-26T12:42:13;7.00;;;2.03;;
58615;SDS011;44385;51.992;4.206;2023-06-26T12:44:39;4.55;;;1.67;;
58615;SDS011;44385;51.992;4.206;2023-06-26T12:47:06;5.50;;;2.00;;
58615;SDS011;44385;51.992;4.206;2023-06-26T12:49:33;5.25;;;2.08;;
58615;SDS011;44385;51.992;4.206;2023-06-26T12:52:02;2.35;;;1.90;;
58615;SDS011;44385;51.992;4.206;2023-06-26T12:54:29;8.07;;;2.45;;
58615;SDS011;44385;51.992;4.206;2023-06-26T12:56:56;3.80;;;1.90;;
58615;SDS011;44385;51.992;4.206;2023-06-26T12:59:23;26.75;;;4.82;;
58615;SDS011;44385;51.992;4.206;2023-06-26T13:01:49;4.78;;;2.15;;
58615;SDS011;44385;51.992;4.206;2023-06-26T13:04:16;4.43;;;1.70;;
58615;SDS011;44385;51.992;4.206;2023-06-26T13:06:42;4.50;;;1.92;;
58615;SDS011;44385;51.992;4.206;2023-06-26T13:09:10;7.28;;;2.03;;
58615;SDS011;44385;51.992;4.206;2023-06-26T13:11:37;4.60;;;1.63;;
58615;SDS011;44385;51.992;4.206;2023-06-26T13:14:04;3.72;;;1.73;;
58615;SDS011;44385;51.992;4.206;2023-06-26T13:16:30;5.40;;;1.40;;
58615;SDS011;44385;51.992;4.206;2023-06-26T13:18:57;4.53;;;1.75;;
58615;SDS011;44385;51.992;4.206;2023-06-26T13:21:24;4.03;;;1.60;;
58615;SDS011;44385;51.992;4.206;2023-06-26T13:23:50;3.03;;;1.60;;
58615;SDS011;44385;51.992;4.206;2023-06-26T13:26:18;3.60;;;1.42;;
58615;SDS011;44385;51.992;4.206;2023-06-26T13:28:46;3.55;;;1.45;;
58615;SDS011;44385;51.992;4.206;2023-06-26T13:31:13;3.33;;;1.55;;
58615;SDS011;44385;51.992;4.206;2023-06-26T13:33:39;3.38;;;1.35;;
58615;SDS011;44385;51.992;4.206;2023-06-26T13:36:06;1.83;;;1.40;;
58615;SDS011;44385;51.992;4.206;2023-06-26T13:38:32;4.32;;;1.80;;
58615;SDS011;44385;51.992;4.206;2023-06-26T13:40:59;6.85;;;1.45;;
58615;SDS011;44385;51.992;4.206;2023-06-26T13:43:28;3.33;;;1.30;;
58615;SDS011;44385;51.992;4.206;2023-06-26T13:45:55;2.90;;;1.48;;
58615;SDS011;44385;51.992;4.206;2023-06-26T13:48:21;2.33;;;1.10;;
58615;SDS011;44385;51.992;4.206;2023-06-26T13:50:49;3.85;;;1.33;;
58615;SDS011;44385;51.992;4.206;2023-06-26T13:53:16;3.63;;;1.30;;
58615;SDS011;44385;51.992;4.206;2023-06-26T13:55:42;6.18;;;1.77;;
58615;SDS011;44385;51.992;4.206;2023-06-26T13:58:09;2.97;;;1.35;;
58615;SDS011;44385;51.992;4.206;2023-06-26T14:00:38;3.05;;;1.55;;
58615;SDS011;44385;51.992;4.206;2023-06-26T14:03:04;4.07;;;1.58;;
58615;SDS011;44385;51.992;4.206;2023-06-26T14:05:31;3.03;;;1.60;;
58615;SDS011;44385;51.992;4.206;2023-06-26T14:07:58;2.35;;;1.40;;
58615;SDS011;44385;51.992;4.206;2023-06-26T14:10:24;4.28;;;1.58;;
58615;SDS011;44385;51.992;4.206;2023-06-26T14:12:51;2.78;;;1.35;;
58615;SDS011;44385;51.992;4.206;2023-06-26T14:15:17;2.05;;;1.45;;
58615;SDS011;44385;51.992;4.206;2023-06-26T14:17:45;2.85;;;1.70;;
58615;SDS011;44385;51.992;4.206;2023-06-26T14:20:13;2.90;;;1.48;;
58615;SDS011;44385;51.992;4.206;2023-06-26T14:22:41;3.08;;;1.45;;
58615;SDS011;44385;51.992;4.206;2023-06-26T14:25:08;3.38;;;1.88;;
58615;SDS011;44385;51.992;4.206;2023-06-26T14:27:34;3.42;;;1.50;;
58615;SDS011;44385;51.992;4.206;2023-06-26T14:30:01;3.05;;;1.40;;
58615;SDS011;44385;51.992;4.206;2023-06-26T14:32:27;5.40;;;1.50;;
58615;SDS011;44385;51.992;4.206;2023-06-26T14:34:55;3.08;;;1.58;;
58615;SDS011;44385;51.992;4.206;2023-06-26T14:37:22;3.55;;;1.70;;
58615;SDS011;44385;51.992;4.206;2023-06-26T14:39:49;2.13;;;1.30;;
58615;SDS011;44385;51.992;4.206;2023-06-26T14:42:15;4.45;;;1.70;;
58615;SDS011;44385;51.992;4.206;2023-06-26T14:44:42;5.18;;;1.60;;